F46 weather

Rockwall Municipal Airport
Rockwall, Texas, United States

Public forecast

Using degrees Fahrenheit for public forecast. Weather courtesy of forecast.io.

Current aviation weather report (METAR) for Rockwall Municipal Airport

Retrieved UTC (0 seconds ago):

Closest aviation forecast (TAF) to Rockwall Municipal Airport

Closest forecast is Dallas Love Field, 21.6 nm (40.0 km) WSW. Retrieved 2020/07/02 06:22 UTC (11 minutes ago):

TAF KDAL 020520Z 0206/0306 16008KT P6SM SCT250 TEMPO 0212/0215 BKN015 FM021700 17009KT P6SM SCT040